Time;durP1;ratioP1;P1;durP2;ratioP2;P2;SDS_P1;SDS_P2;PMS_P1;PMS_P2;Temp;Humidity;BMP_temperature;BMP_pressure;BME280_temperature;BME280_humidity;BME280_pressure;Samples;Min_cycle;Max_cycle;Signal;HPM_P1;HPM_P2
2023/06/06 00:00:24;;;;;;;8.82;4.85;;;;;;;12.35;100.00;102311.13;5044655;28;20301;-56
2023/06/06 00:02:50;;;;;;;7.85;4.93;;;;;;;12.30;100.00;102305.03;5044622;28;20036;-57
2023/06/06 00:05:16;;;;;;;12.45;5.78;;;;;;;12.22;100.00;102309.59;5045177;28;20460;-61
2023/06/06 00:07:44;;;;;;;12.60;5.22;;;;;;;12.12;100.00;102303.59;5044313;28;20598;-58
2023/06/06 00:10:12;;;;;;;10.18;5.07;;;;;;;12.23;100.00;102306.06;5044961;28;20018;-55
2023/06/06 00:12:37;;;;;;;14.65;5.53;;;;;;;12.25;100.00;102305.13;5044847;28;20522;-57
2023/06/06 00:15:05;;;;;;;8.45;5.22;;;;;;;12.23;100.00;102308.69;5044589;28;20021;-57
2023/06/06 00:17:31;;;;;;;10.02;5.82;;;;;;;12.13;100.00;102313.25;5044902;28;20024;-62
2023/06/06 00:19:56;;;;;;;10.05;5.43;;;;;;;12.10;100.00;102308.91;5044715;28;20021;-58
2023/06/06 00:22:23;;;;;;;8.98;5.10;;;;;;;12.10;100.00;102303.63;5043914;28;20415;-58
2023/06/06 00:24:57;;;;;;;11.98;5.05;;;;;;;12.08;100.00;102304.53;5044128;28;20017;-59
2023/06/06 00:27:22;;;;;;;10.20;6.07;;;;;;;12.11;100.00;102305.38;5044443;28;20140;-57
2023/06/06 00:29:48;;;;;;;11.57;5.65;;;;;;;12.09;100.00;102308.91;5044444;28;20579;-59
2023/06/06 00:32:13;;;;;;;8.05;5.65;;;;;;;12.10;100.00;102311.53;5044408;28;20103;-62
2023/06/06 00:34:38;;;;;;;18.45;5.93;;;;;;;12.04;100.00;102306.31;5044925;28;20401;-57
2023/06/06 00:37:04;;;;;;;9.85;5.85;;;;;;;12.03;100.00;102307.22;5043457;28;20594;-59
2023/06/06 00:39:29;;;;;;;8.45;5.35;;;;;;;11.93;100.00;102308.28;5044144;28;20486;-55
2023/06/06 00:41:55;;;;;;;10.10;5.68;;;;;;;11.88;100.00;102313.63;5044271;28;20166;-58
2023/06/06 00:44:20;;;;;;;8.90;5.43;;;;;;;11.95;100.00;102314.41;5044235;28;20057;-56
2023/06/06 00:46:46;;;;;;;12.38;6.50;;;;;;;11.85;100.00;102317.19;5026080;28;20450;-57
2023/06/06 00:49:13;;;;;;;12.00;5.65;;;;;;;11.89;100.00;102312.72;5044929;28;20418;-60
2023/06/06 00:51:39;;;;;;;17.10;6.75;;;;;;;11.91;100.00;102313.59;5043937;28;20312;-59
2023/06/06 00:54:07;;;;;;;9.65;5.90;;;;;;;11.78;100.00;102304.09;5042617;28;20123;-59
2023/06/06 00:56:35;;;;;;;8.93;5.75;;;;;;;11.76;100.00;102317.34;5044368;28;20038;-59
2023/06/06 00:59:01;;;;;;;13.82;6.65;;;;;;;11.80;100.00;102311.09;5042958;28;20028;-59
2023/06/06 01:01:28;;;;;;;9.88;6.22;;;;;;;11.79;100.00;102311.13;5044302;28;20081;-59
2023/06/06 01:03:56;;;;;;;10.65;6.25;;;;;;;11.74;100.00;102304.16;5043870;28;20479;-62
2023/06/06 01:06:22;;;;;;;16.15;7.00;;;;;;;11.76;100.00;102312.06;5042037;28;20395;-59
2023/06/06 01:08:48;;;;;;;13.73;6.88;;;;;;;11.73;100.00;102312.09;5043653;28;20056;-60
2023/06/06 01:11:17;;;;;;;12.40;6.93;;;;;;;11.70;100.00;102312.13;5043955;28;20361;-60
2023/06/06 01:13:51;;;;;;;12.75;6.38;;;;;;;11.74;100.00;102309.44;5045731;28;20057;-63
2023/06/06 01:16:18;;;;;;;14.45;6.88;;;;;;;11.78;100.00;102306.75;5046823;28;20499;-58
2023/06/06 01:18:45;;;;;;;13.60;6.95;;;;;;;11.71;100.00;102312.13;5047461;28;20025;-60
2023/06/06 01:21:11;;;;;;;11.82;6.57;;;;;;;11.71;100.00;102311.25;5046483;28;20029;-59
2023/06/06 01:23:37;;;;;;;15.10;6.72;;;;;;;11.78;100.00;102309.38;5048253;28;20045;-60
2023/06/06 01:26:05;;;;;;;10.55;6.70;;;;;;;11.73;100.00;102301.53;5047271;28;20522;-60
2023/06/06 01:28:31;;;;;;;10.47;6.97;;;;;;;11.71;100.00;102300.69;5048054;28;20238;-58
2023/06/06 01:30:57;;;;;;;8.63;7.00;;;;;;;11.71;100.00;102303.34;5047808;28;20017;-57
2023/06/06 01:33:35;;;;;;;12.32;7.10;;;;;;;11.69;100.00;102306.00;5047199;28;20028;-59
2023/06/06 01:36:30;;;;;;;17.48;7.60;;;;;;;11.70;100.00;102302.47;5045771;28;20025;-56
2023/06/06 01:39:01;;;;;;;12.98;7.05;;;;;;;11.61;100.00;102292.91;5047668;28;20051;-57
2023/06/06 01:41:28;;;;;;;14.45;7.28;;;;;;;11.60;100.00;102300.84;5047445;28;20082;-60
2023/06/06 01:43:54;;;;;;;11.60;6.88;;;;;;;11.51;100.00;102296.59;5046349;28;20025;-56
2023/06/06 01:46:20;;;;;;;14.60;6.82;;;;;;;11.58;100.00;102303.50;5046435;28;20360;-60
2023/06/06 01:48:46;;;;;;;15.05;7.18;;;;;;;11.55;100.00;102306.19;5046274;28;20029;-59
2023/06/06 01:51:11;;;;;;;13.38;6.93;;;;;;;11.52;100.00;102300.97;5047050;28;20036;-60
2023/06/06 01:53:37;;;;;;;14.57;7.00;;;;;;;11.51;100.00;102299.22;5046530;28;20428;-60
2023/06/06 01:56:02;;;;;;;14.85;7.45;;;;;;;11.55;100.00;102294.75;5047143;28;20108;-56
2023/06/06 01:58:27;;;;;;;17.35;7.57;;;;;;;11.48;100.00;102301.91;5049935;28;20047;-57
2023/06/06 02:00:53;;;;;;;13.88;7.20;;;;;;;11.43;100.00;102301.09;5049156;28;20091;-54
2023/06/06 02:03:18;;;;;;;13.45;7.82;;;;;;;11.37;100.00;102300.28;5049303;28;20025;-60
2023/06/06 02:05:43;;;;;;;12.93;7.78;;;;;;;11.44;100.00;102303.69;5049377;28;20086;-57
2023/06/06 02:08:09;;;;;;;18.30;8.65;;;;;;;11.40;100.00;102303.75;5048383;28;20041;-59
2023/06/06 02:10:36;;;;;;;12.40;7.53;;;;;;;11.45;100.00;102300.19;5049220;28;20031;-59
2023/06/06 02:13:01;;;;;;;13.18;7.57;;;;;;;11.38;100.00;102291.47;5048630;28;20498;-60
2023/06/06 02:15:29;;;;;;;15.45;8.30;;;;;;;11.33;100.00;102298.59;5049511;28;20020;-58
2023/06/06 02:17:54;;;;;;;13.75;7.47;;;;;;;11.40;100.00;102291.44;5050103;28;20473;-61
2023/06/06 02:20:20;;;;;;;11.73;7.80;;;;;;;11.36;100.00;102295.03;5050893;28;20421;-61
2023/06/06 02:22:45;;;;;;;19.40;8.52;;;;;;;11.31;100.00;102308.28;5049913;28;20025;-61
2023/06/06 02:25:12;;;;;;;17.45;8.40;;;;;;;11.35;100.00;102307.34;5048980;28;20033;-58
2023/06/06 02:27:38;;;;;;;16.95;8.20;;;;;;;11.30;100.00;102303.03;5049476;28;20078;-59
2023/06/06 02:30:07;;;;;;;15.07;8.75;;;;;;;11.34;100.00;102296.81;5048453;28;20119;-63
2023/06/06 02:32:32;;;;;;;15.45;8.55;;;;;;;11.38;100.00;102306.44;5049243;28;20241;-57
2023/06/06 02:34:59;;;;;;;13.18;7.70;;;;;;;11.42;100.00;102294.94;5048304;28;20248;-57
2023/06/06 02:37:26;;;;;;;12.75;8.18;;;;;;;11.36;100.00;102301.19;5048493;28;20036;-56
2023/06/06 02:39:52;;;;;;;16.45;8.48;;;;;;;11.36;100.00;102301.19;5047159;28;20044;-57
2023/06/06 02:42:18;;;;;;;11.77;7.68;;;;;;;11.28;100.00;102297.75;5048020;28;20304;-56
2023/06/06 02:44:43;;;;;;;14.15;7.72;;;;;;;11.28;100.00;102288.97;5046995;28;20389;-55
2023/06/06 02:47:08;;;;;;;15.40;8.27;;;;;;;11.24;100.00;102294.31;5048347;28;20499;-54
2023/06/06 02:49:34;;;;;;;19.25;8.60;;;;;;;11.26;100.00;102294.28;5047455;28;20237;-55
2023/06/06 02:51:59;;;;;;;15.32;9.00;;;;;;;11.16;100.00;102295.28;5045761;28;20040;-56
2023/06/06 02:54:24;;;;;;;13.20;8.25;;;;;;;11.23;100.00;102297.81;5046088;28;20017;-56
2023/06/06 02:56:50;;;;;;;18.98;8.45;;;;;;;11.23;100.00;102291.69;5046336;28;20029;-56
2023/06/06 02:59:15;;;;;;;16.00;8.20;;;;;;;11.17;100.00;102297.03;5046371;28;20257;-56
2023/06/06 03:01:44;;;;;;;17.15;8.32;;;;;;;11.08;100.00;102295.41;5046376;28;20228;-56
2023/06/06 03:04:13;;;;;;;16.13;8.50;;;;;;;11.05;100.00;102296.28;5046578;28;20036;-59
2023/06/06 03:06:39;;;;;;;15.15;8.63;;;;;;;11.10;100.00;102296.25;5044288;28;20021;-63
2023/06/06 03:09:05;;;;;;;12.40;8.25;;;;;;;11.02;100.00;102298.13;5044344;28;20021;-56
2023/06/06 03:11:31;;;;;;;18.27;9.30;;;;;;;11.02;100.00;102301.63;5045905;28;20040;-55
2023/06/06 03:13:57;;;;;;;13.93;7.75;;;;;;;11.08;100.00;102298.03;5045804;28;20029;-59
2023/06/06 03:16:26;;;;;;;14.93;8.90;;;;;;;10.98;100.00;102297.25;5046021;28;20120;-57
2023/06/06 03:18:52;;;;;;;11.57;8.73;;;;;;;11.05;100.00;102304.19;5045536;28;20375;-62
2023/06/06 03:21:18;;;;;;;19.73;8.48;;;;;;;11.04;100.00;102305.09;5045356;28;20025;-59
2023/06/06 03:23:43;;;;;;;14.68;8.05;;;;;;;11.14;100.00;102307.63;5045756;28;20033;-63
2023/06/06 03:26:09;;;;;;;15.48;8.88;;;;;;;11.11;100.00;102309.41;5047305;28;20033;-57
2023/06/06 03:28:34;;;;;;;16.13;8.52;;;;;;;11.17;100.00;102305.81;5046385;28;20487;-56
2023/06/06 03:31:00;;;;;;;14.95;7.93;;;;;;;11.15;100.00;102301.47;5044324;28;20021;-58
2023/06/06 03:33:26;;;;;;;14.65;7.63;;;;;;;11.18;100.00;102304.06;5045670;28;20119;-58
2023/06/06 03:35:51;;;;;;;16.58;8.07;;;;;;;11.18;100.00;102306.69;5044525;28;20097;-59
2023/06/06 03:38:16;;;;;;;15.45;7.93;;;;;;;11.22;100.00;102311.03;5045988;28;20074;-59
2023/06/06 03:40:42;;;;;;;16.58;8.13;;;;;;;11.18;100.00;102304.06;5045675;28;20136;-61
2023/06/06 03:43:07;;;;;;;14.27;8.35;;;;;;;11.19;100.00;102311.06;5046257;28;20024;-60
2023/06/06 03:45:32;;;;;;;12.07;7.43;;;;;;;11.19;100.00;102305.78;5045642;28;20033;-60
2023/06/06 03:47:58;;;;;;;12.70;7.65;;;;;;;11.29;100.00;102307.41;5045394;28;20174;-58
2023/06/06 03:50:23;;;;;;;16.17;7.93;;;;;;;11.34;100.00;102304.72;5045424;28;20032;-60
2023/06/06 03:52:49;;;;;;;18.08;7.28;;;;;;;11.32;100.00;102307.38;5044550;28;20052;-61
2023/06/06 03:55:14;;;;;;;18.35;8.32;;;;;;;11.45;100.00;102302.81;5045350;28;20067;-61
2023/06/06 03:57:40;;;;;;;14.98;8.35;;;;;;;11.41;100.00;102306.38;5046109;28;20387;-58
2023/06/06 04:00:10;;;;;;;17.52;7.47;;;;;;;11.49;100.00;102304.53;5045451;28;20379;-60
2023/06/06 04:02:40;;;;;;;15.57;7.82;;;;;;;11.49;100.00;102304.53;5043880;28;20365;-55
2023/06/06 04:05:06;;;;;;;13.20;8.02;;;;;;;11.65;100.00;102308.72;5043809;28;20082;-56
2023/06/06 04:07:31;;;;;;;13.50;7.63;;;;;;;11.78;100.00;102306.75;5044231;28;20048;-55
2023/06/06 04:09:57;;;;;;;17.27;7.75;;;;;;;11.88;100.00;102303.94;5044772;28;20021;-61
2023/06/06 04:12:22;;;;;;;14.15;7.72;;;;;;;11.89;100.00;102304.78;5045357;28;20479;-54
2023/06/06 04:14:49;;;;;;;14.00;7.78;;;;;;;12.07;100.00;102303.66;5044897;28;20061;-56
2023/06/06 04:17:14;;;;;;;14.65;8.07;;;;;;;12.17;100.00;102306.16;5044747;28;20102;-57
2023/06/06 04:19:39;;;;;;;14.18;6.97;;;;;;;12.32;100.00;102305.91;5043899;28;20060;-57
2023/06/06 04:22:05;;;;;;;12.57;7.18;;;;;;;12.42;100.00;102301.31;5045061;28;20014;-55
2023/06/06 04:24:31;;;;;;;15.70;7.45;;;;;;;12.47;100.00;102296.81;5045146;28;20112;-55
2023/06/06 04:26:57;;;;;;;14.02;6.75;;;;;;;12.56;100.00;102300.19;5045214;28;20104;-60
2023/06/06 04:29:23;;;;;;;12.77;6.40;;;;;;;12.62;100.00;102298.28;5044500;28;20131;-58
2023/06/06 04:31:48;;;;;;;10.45;5.90;;;;;;;12.75;100.00;102298.06;5045088;28;20029;-59
2023/06/06 04:34:13;;;;;;;14.38;7.05;;;;;;;12.73;100.00;102300.72;5045525;28;20073;-57
2023/06/06 04:36:40;;;;;;;15.25;6.30;;;;;;;12.74;100.00;102296.31;5046155;28;20414;-56
2023/06/06 04:39:06;;;;;;;19.10;6.55;;;;;;;12.76;100.00;102299.78;5047197;28;20101;-55
2023/06/06 04:41:33;;;;;;;11.88;5.90;;;;;;;12.87;100.00;102287.25;5048571;28;20047;-56
2023/06/06 04:44:01;;;;;;;13.63;6.13;;;;;;;12.87;100.00;102292.53;5048031;28;20017;-57
2023/06/06 04:46:29;;;;;;;14.33;6.73;;;;;;;12.80;100.00;102298.84;5046676;28;20036;-57
2023/06/06 04:48:55;;;;;;;19.23;7.15;;;;;;;12.70;100.00;102298.13;5042830;28;20275;-59
2023/06/06 04:51:30;;;;;;;16.25;6.38;;;;;;;12.81;100.00;102303.22;5044333;28;20045;-59
2023/06/06 04:53:59;;;;;;;12.63;6.00;;;;;;;12.76;100.00;102307.72;5044085;28;20542;-58
2023/06/06 04:56:28;;;;;;;13.10;5.88;;;;;;;12.88;100.00;102306.59;5044746;28;20029;-59
2023/06/06 04:58:53;;;;;;;9.23;5.65;;;;;;;12.89;100.00;102300.44;5044388;28;20037;-59
2023/06/06 05:01:20;;;;;;;17.58;6.32;;;;;;;12.98;100.00;102294.09;5044449;28;20556;-56
2023/06/06 05:03:46;;;;;;;16.10;6.18;;;;;;;12.97;100.00;102293.19;5044195;28;20112;-57
2023/06/06 05:06:11;;;;;;;13.02;6.20;;;;;;;13.01;100.00;102294.88;5043495;28;20558;-61
2023/06/06 05:08:41;;;;;;;17.67;6.43;;;;;;;12.89;100.00;102305.72;5043931;28;20053;-58
2023/06/06 05:11:07;;;;;;;8.95;5.65;;;;;;;12.93;100.00;102303.88;5044153;28;20387;-63
2023/06/06 05:13:33;;;;;;;12.88;5.93;;;;;;;13.09;100.00;102302.66;5044100;28;20111;-57
2023/06/06 05:15:59;;;;;;;10.50;5.53;;;;;;;13.17;100.00;102301.63;5044029;28;20021;-62
2023/06/06 05:18:24;;;;;;;15.25;5.88;;;;;;;13.27;100.00;102295.22;5044200;28;20025;-57
2023/06/06 05:20:50;;;;;;;16.63;6.05;;;;;;;13.19;100.00;102298.06;5043199;28;20055;-57
2023/06/06 05:23:15;;;;;;;13.00;5.55;;;;;;;13.17;100.00;102296.31;5044249;28;20021;-57
2023/06/06 05:25:41;;;;;;;11.13;5.22;;;;;;;13.26;100.00;102294.38;5044552;28;20047;-56
2023/06/06 05:28:06;;;;;;;15.18;5.97;;;;;;;13.50;100.00;102291.22;5043669;28;20056;-57
2023/06/06 05:30:32;;;;;;;17.45;5.55;;;;;;;13.48;100.00;102293.00;5044108;28;20060;-58
2023/06/06 05:32:57;;;;;;;12.60;5.90;;;;;;;13.40;100.00;102288.75;5043574;28;20040;-58
2023/06/06 05:35:22;;;;;;;12.93;5.53;;;;;;;13.57;100.00;102294.63;5043278;28;20032;-56
2023/06/06 05:37:49;;;;;;;14.52;6.35;;;;;;;13.70;100.00;102290.75;5043961;28;20147;-56
2023/06/06 05:40:14;;;;;;;15.60;6.00;;;;;;;13.69;100.00;102301.41;5044340;28;20121;-58
2023/06/06 05:42:40;;;;;;;13.00;5.60;;;;;;;13.66;100.00;102299.66;5044310;28;20523;-56
2023/06/06 05:45:06;;;;;;;12.38;5.82;;;;;;;13.77;100.00;102302.06;5043711;28;20029;-58
2023/06/06 05:47:31;;;;;;;11.23;5.82;;;;;;;13.66;100.00;102307.63;5044164;28;20033;-59
2023/06/06 05:49:56;;;;;;;10.90;5.55;;;;;;;13.94;100.00;102306.94;5041881;28;20082;-57
2023/06/06 05:52:22;;;;;;;20.10;5.75;;;;;;;13.72;100.00;102302.19;5043215;28;20033;-58
2023/06/06 05:54:47;;;;;;;12.63;5.65;;;;;;;13.57;100.00;102308.72;5043441;28;20426;-61
2023/06/06 05:57:23;;;;;;;13.48;5.88;;;;;;;13.45;100.00;102299.22;5043735;28;20471;-60
2023/06/06 05:59:48;;;;;;;14.35;5.95;;;;;;;13.68;100.00;102304.94;5046408;28;20028;-64
2023/06/06 06:02:14;;;;;;;16.80;5.82;;;;;;;13.81;100.00;102306.38;5047618;28;20480;-59
2023/06/06 06:04:41;;;;;;;14.85;5.45;;;;;;;14.05;100.00;102304.03;5047353;28;20375;-58
2023/06/06 06:07:06;;;;;;;16.98;5.43;;;;;;;13.97;100.00;102303.38;5046050;28;20052;-58
2023/06/06 06:09:32;;;;;;;14.10;5.95;;;;;;;14.00;100.00;102306.81;5046920;28;20028;-57
2023/06/06 06:11:58;;;;;;;22.80;6.10;;;;;;;14.11;100.00;102303.88;5046775;28;20116;-61
2023/06/06 06:14:23;;;;;;;13.50;6.00;;;;;;;14.18;100.00;102301.09;5047033;28;20389;-58
2023/06/06 06:16:48;;;;;;;14.82;5.88;;;;;;;14.32;100.00;102301.59;5047033;28;20028;-57
2023/06/06 06:19:14;;;;;;;13.82;5.82;;;;;;;14.27;100.00;102304.34;5046404;28;20105;-60
2023/06/06 06:21:39;;;;;;;11.90;5.32;;;;;;;14.57;100.00;102305.38;5046673;28;20380;-59
2023/06/06 06:24:05;;;;;;;12.57;6.05;;;;;;;14.33;100.00;102311.28;5045130;28;20229;-56
2023/06/06 06:26:31;;;;;;;14.25;5.95;;;;;;;14.45;100.00;102311.88;5046406;28;20028;-57
2023/06/06 06:28:56;;;;;;;16.13;5.72;;;;;;;14.39;100.00;102308.47;5046347;28;20021;-58
2023/06/06 06:31:22;;;;;;;8.88;5.57;;;;;;;14.42;100.00;102314.63;5046982;28;20048;-57
2023/06/06 06:33:48;;;;;;;13.30;5.55;;;;;;;14.40;100.00;102310.22;5046072;28;20029;-56
2023/06/06 06:36:13;;;;;;;18.30;6.25;;;;;;;14.46;100.00;102306.53;5045988;28;20044;-61
2023/06/06 06:38:38;;;;;;;14.43;5.93;;;;;;;14.88;100.00;102310.72;5046431;28;20017;-59
2023/06/06 06:41:04;;;;;;;12.27;5.22;;;;;;;14.97;100.00;102314.03;5046090;28;20044;-57
2023/06/06 06:43:29;;;;;;;12.50;5.43;;;;;;;14.98;100.00;102316.63;5046398;28;20128;-58
2023/06/06 06:45:55;;;;;;;13.48;5.57;;;;;;;15.06;100.00;102311.09;5046059;28;20100;-60
2023/06/06 06:48:20;;;;;;;11.88;5.20;;;;;;;14.93;100.00;102312.38;5044840;28;20053;-60
2023/06/06 06:50:45;;;;;;;11.52;5.53;;;;;;;14.95;100.00;102315.84;5045282;28;20021;-58
2023/06/06 06:53:13;;;;;;;11.52;5.28;;;;;;;14.93;100.00;102317.69;5045955;28;20029;-59
2023/06/06 06:55:39;;;;;;;17.80;6.22;;;;;;;14.99;100.00;102312.22;5046391;28;20049;-58
2023/06/06 06:58:05;;;;;;;13.55;5.25;;;;;;;15.23;100.00;102313.25;5046012;28;20033;-59
2023/06/06 07:00:31;;;;;;;13.85;6.07;;;;;;;15.09;100.00;102311.03;5045770;28;20088;-60
2023/06/06 07:02:57;;;;;;;10.25;5.90;;;;;;;15.45;100.00;102309.94;5045608;28;20052;-58
2023/06/06 07:05:23;;;;;;;10.13;5.90;;;;;;;15.45;100.00;102314.38;5045144;28;20452;-62
2023/06/06 07:07:52;;;;;;;17.55;5.43;;;;;;;15.50;100.00;102307.16;5045276;28;20048;-60
2023/06/06 07:10:19;;;;;;;14.13;5.65;;;;;;;15.75;100.00;102312.53;5044930;28;20475;-62
2023/06/06 07:12:49;;;;;;;11.32;6.28;;;;;;;15.84;100.00;102314.03;5045678;28;20032;-60
2023/06/06 07:15:15;;;;;;;13.55;6.15;;;;;;;15.71;100.00;102316.22;5045607;28;20029;-58
2023/06/06 07:17:46;;;;;;;12.68;5.50;;;;;;;15.81;100.00;102319.47;5046164;28;20435;-59
2023/06/06 07:20:11;;;;;;;19.67;6.00;;;;;;;15.60;100.00;102319.22;5045247;28;20505;-59
2023/06/06 07:22:36;;;;;;;14.25;6.25;;;;;;;15.39;100.00;102316.28;5045875;28;20025;-61
2023/06/06 07:25:06;;;;;;;12.35;6.25;;;;;;;15.29;100.00;102309.53;5045375;28;20132;-58
2023/06/06 07:27:35;;;;;;;10.15;5.57;;;;;;;15.45;100.00;102314.38;5045760;28;20035;-57
2023/06/06 07:30:01;;;;;;;13.18;5.65;;;;;;;15.38;100.00;102306.59;5045057;28;20028;-61
2023/06/06 07:32:27;;;;;;;11.38;6.28;;;;;;;15.22;100.00;102306.19;5045458;28;20103;-59
2023/06/06 07:34:52;;;;;;;11.15;5.32;;;;;;;15.35;100.00;102303.19;5044275;28;20100;-63
2023/06/06 07:37:17;;;;;;;12.50;5.32;;;;;;;15.44;100.00;102299.38;5045033;28;20071;-60
2023/06/06 07:39:44;;;;;;;8.85;4.93;;;;;;;15.24;100.00;102301.72;5044997;28;20045;-62
2023/06/06 07:42:09;;;;;;;8.25;4.78;;;;;;;15.44;100.00;102302.88;5046104;28;20035;-58
2023/06/06 07:44:35;;;;;;;12.77;5.03;;;;;;;15.38;100.00;102298.63;5045063;28;20428;-60
2023/06/06 07:47:00;;;;;;;14.05;5.75;;;;;;;15.27;100.00;102292.78;5045137;28;20091;-61
2023/06/06 07:49:25;;;;;;;10.80;5.47;;;;;;;15.54;100.00;102299.00;5045180;28;20033;-60
2023/06/06 07:51:51;;;;;;;14.43;5.78;;;;;;;15.40;100.00;102306.56;5044056;28;20029;-61
2023/06/06 07:54:16;;;;;;;13.88;5.57;;;;;;;15.54;100.00;102303.47;5043757;28;20077;-62
2023/06/06 07:56:43;;;;;;;10.13;5.20;;;;;;;15.51;100.00;102303.56;5045499;28;20480;-62
2023/06/06 07:59:09;;;;;;;9.38;5.28;;;;;;;15.59;100.00;102304.19;5045291;28;20056;-59
2023/06/06 08:01:35;;;;;;;12.27;5.63;;;;;;;15.90;100.00;102300.53;5043677;28;20061;-58
2023/06/06 08:04:01;;;;;;;13.25;5.20;;;;;;;15.75;100.00;102298.38;5043548;28;20021;-62
2023/06/06 08:06:32;;;;;;;10.48;5.55;;;;;;;15.98;100.00;102297.66;5044113;28;20025;-58
2023/06/06 08:08:59;;;;;;;13.32;5.63;;;;;;;15.96;100.00;102298.59;5044705;28;20033;-57
2023/06/06 08:11:24;;;;;;;8.57;5.28;;;;;;;15.98;100.00;102302.13;5044595;28;20483;-59
2023/06/06 08:13:50;;;;;;;13.02;5.43;;;;;;;16.08;100.00;102298.22;5044177;28;20025;-56
2023/06/06 08:16:15;;;;;;;12.82;5.82;;;;;;;15.95;100.00;102296.88;5044834;28;20491;-58
2023/06/06 08:18:40;;;;;;;15.85;5.70;;;;;;;16.04;100.00;102293.91;5044466;28;20032;-60
2023/06/06 08:21:06;;;;;;;14.05;5.43;;;;;;;15.94;100.00;102293.34;5043759;28;20029;-59
2023/06/06 08:23:33;;;;;;;12.38;5.82;;;;;;;15.99;100.00;102296.75;5044564;28;20052;-59
2023/06/06 08:25:59;;;;;;;19.02;5.32;;;;;;;16.07;100.00;102291.16;5044106;28;20054;-57
2023/06/06 08:28:25;;;;;;;16.05;5.88;;;;;;;16.06;100.00;102293.84;5044339;28;20549;-56
2023/06/06 08:30:53;;;;;;;11.68;5.20;;;;;;;16.20;100.00;102286.31;5044406;28;20017;-59
2023/06/06 08:33:19;;;;;;;13.40;5.45;;;;;;;16.24;100.00;102297.69;5044481;28;20025;-59
2023/06/06 08:35:45;;;;;;;12.05;5.22;;;;;;;16.42;100.00;102283.75;5043531;28;20447;-61
2023/06/06 08:38:11;;;;;;;12.43;5.80;;;;;;;16.31;100.00;102293.88;5045122;28;20024;-59
2023/06/06 08:40:36;;;;;;;18.60;6.13;;;;;;;16.43;100.00;102284.59;5044573;28;20017;-61
2023/06/06 08:43:04;;;;;;;8.75;5.40;;;;;;;16.61;100.00;102291.06;5044297;28;20483;-60
2023/06/06 08:45:31;;;;;;;11.18;5.75;;;;;;;16.94;100.00;102281.88;5044304;28;20056;-62
2023/06/06 08:47:58;;;;;;;14.02;5.60;;;;;;;16.64;100.00;102285.63;5044269;28;20210;-59
2023/06/06 08:50:25;;;;;;;14.48;5.40;;;;;;;17.00;100.00;102292.28;5043575;28;20017;-55
2023/06/06 08:52:51;;;;;;;16.25;5.88;;;;;;;17.14;100.00;102283.81;5042721;28;20447;-55
2023/06/06 08:55:18;;;;;;;15.20;5.22;;;;;;;17.05;100.00;102287.66;5044237;28;20423;-54
2023/06/06 08:57:45;;;;;;;17.80;6.50;;;;;;;16.94;100.00;102284.53;5043845;28;20017;-55
2023/06/06 09:00:18;;;;;;;23.90;5.90;;;;;;;17.07;100.00;102284.97;5042958;28;20021;-54
2023/06/06 09:02:44;;;;;;;16.88;5.72;;;;;;;17.10;100.00;102282.16;5044073;28;20029;-59
2023/06/06 09:05:12;;;;;;;14.75;6.30;;;;;;;17.09;100.00;102280.44;5042403;28;20383;-58
2023/06/06 09:07:38;;;;;;;12.63;5.33;;;;;;;17.49;100.00;102279.81;5044300;28;20052;-56
2023/06/06 09:10:05;;;;;;;11.98;5.82;;;;;;;17.44;100.00;102277.34;5043752;28;20029;-60
2023/06/06 09:12:39;;;;;;;13.75;6.10;;;;;;;17.28;100.00;102277.94;5044095;28;20103;-56
2023/06/06 09:15:05;;;;;;;15.45;5.50;;;;;;;17.58;100.00;102266.09;5042525;28;20051;-65
2023/06/06 09:17:35;;;;;;;11.52;5.53;;;;;;;17.99;100.00;102275.09;5044109;28;20028;-59
2023/06/06 09:20:00;;;;;;;14.05;5.93;;;;;;;17.87;100.00;102277.34;5042701;28;20045;-61
2023/06/06 09:22:25;;;;;;;16.08;5.88;;;;;;;17.58;100.00;102271.41;5043765;28;20111;-58
2023/06/06 09:24:56;;;;;;;16.13;6.18;;;;;;;17.94;100.00;102276.16;5043495;28;20013;-56
2023/06/06 09:27:31;;;;;;;12.48;5.70;;;;;;;18.09;100.00;102278.25;5044011;28;20426;-58
2023/06/06 09:29:56;;;;;;;13.32;6.05;;;;;;;18.10;100.00;102275.56;5043709;28;20111;-59
2023/06/06 09:32:31;;;;;;;13.95;5.05;;;;;;;18.40;100.00;102280.47;5043877;28;20247;-59
2023/06/06 09:35:04;;;;;;;12.82;6.13;;;;;;;18.45;100.00;102269.56;5045930;28;20070;-60
2023/06/06 09:37:30;;;;;;;12.90;6.47;;;;;;;18.22;100.00;102271.47;5047800;28;20271;-59
2023/06/06 09:40:16;;;;;;;16.33;5.82;;;;;;;18.43;100.00;102264.31;5047062;28;20021;-60
2023/06/06 09:42:42;;;;;;;16.33;6.82;;;;;;;18.16;100.00;102272.63;5047718;28;20476;-59
2023/06/06 09:45:18;;;;;;;13.00;6.28;;;;;;;18.29;100.00;102266.72;5047844;28;20017;-60
2023/06/06 09:47:45;;;;;;;15.93;7.20;;;;;;;18.34;100.00;102264.75;5047378;28;20104;-62
2023/06/06 09:50:11;;;;;;;15.75;6.90;;;;;;;18.30;100.00;102268.44;5047073;28;20025;-61
2023/06/06 09:52:37;;;;;;;19.48;6.43;;;;;;;18.60;100.00;102264.50;5047460;28;20146;-58
2023/06/06 09:55:10;;;;;;;12.15;6.28;;;;;;;18.85;100.00;102263.38;5047002;28;20119;-61
2023/06/06 09:57:37;;;;;;;21.80;6.47;;;;;;;19.23;100.00;102265.22;5047024;28;20040;-58
2023/06/06 10:00:10;;;;;;;14.23;6.07;;;;;;;19.41;100.00;102261.63;5046833;28;20029;-60
2023/06/06 10:02:42;;;;;;;14.13;6.32;;;;;;;19.42;100.00;102267.84;5047049;28;20029;-61
2023/06/06 10:05:12;;;;;;;14.82;6.07;;;;;;;19.19;100.00;102269.81;5046669;28;20025;-58
2023/06/06 10:07:44;;;;;;;18.65;6.38;;;;;;;19.33;97.74;102266.50;5047353;28;20128;-56
2023/06/06 10:10:17;;;;;;;12.52;5.60;;;;;;;19.68;95.03;102268.34;5047493;28;20028;-59
2023/06/06 10:12:43;;;;;;;10.27;6.20;;;;;;;19.40;97.61;102273.25;5047199;28;20036;-65
2023/06/06 10:15:12;;;;;;;14.68;6.10;;;;;;;19.37;100.00;102269.88;5047307;28;20100;-56
2023/06/06 10:17:42;;;;;;;15.38;5.93;;;;;;;19.48;99.96;102270.22;5047645;28;20171;-58
2023/06/06 10:20:12;;;;;;;12.98;6.30;;;;;;;19.72;100.00;102264.59;5046189;28;20484;-61
2023/06/06 10:22:38;;;;;;;14.20;6.22;;;;;;;19.82;100.00;102267.66;5047098;28;20312;-58
2023/06/06 10:25:11;;;;;;;13.48;5.68;;;;;;;20.04;95.73;102266.56;5046639;28;20104;-57
2023/06/06 10:27:47;;;;;;;16.10;5.55;;;;;;;19.73;99.66;102262.78;5046380;28;20017;-61
2023/06/06 10:30:17;;;;;;;11.18;5.75;;;;;;;20.00;99.47;102271.22;5047884;28;20052;-63
2023/06/06 10:32:51;;;;;;;12.48;5.70;;;;;;;20.27;100.00;102267.19;5047065;28;20516;-68
2023/06/06 10:35:17;;;;;;;15.25;5.68;;;;;;;20.42;100.00;102262.84;5046574;28;20036;-57
2023/06/06 10:38:01;;;;;;;13.68;5.45;;;;;;;20.42;98.67;102253.00;5050080;28;20025;-60
2023/06/06 10:40:26;;;;;;;9.77;5.40;;;;;;;20.43;97.54;102257.41;5049269;28;20025;-62
2023/06/06 10:42:53;;;;;;;13.13;5.43;;;;;;;20.32;96.17;102255.28;5049796;28;20035;-57
2023/06/06 10:45:40;;;;;;;10.30;5.88;;;;;;;20.26;97.27;102252.94;5045568;28;20025;-62
2023/06/06 10:48:05;;;;;;;13.60;5.75;;;;;;;20.67;95.54;102259.72;5046403;28;20021;-59
2023/06/06 10:50:32;;;;;;;10.90;5.68;;;;;;;20.44;96.64;102255.63;5045618;28;20044;-59
2023/06/06 10:53:05;;;;;;;8.82;5.25;;;;;;;20.55;99.23;102249.66;5047176;28;20032;-62
2023/06/06 10:55:30;;;;;;;13.10;5.28;;;;;;;21.00;96.69;102249.91;5044872;28;20111;-65
2023/06/06 10:58:10;;;;;;;14.95;5.50;;;;;;;21.25;93.06;102245.00;5045851;28;20155;-60
2023/06/06 11:00:42;;;;;;;9.77;5.35;;;;;;;21.07;95.72;102243.25;5046330;28;20430;-60
2023/06/06 11:03:13;;;;;;;11.23;5.15;;;;;;;21.31;95.42;102244.66;5046279;28;20024;-59
2023/06/06 11:06:00;;;;;;;12.30;5.43;;;;;;;21.58;92.00;102241.28;5045753;28;20517;-57
2023/06/06 11:08:35;;;;;;;12.18;5.32;;;;;;;21.46;91.29;102243.75;5045452;28;20079;-61